createdAt,value
2022-11-12T00:01:20.142Z,5.49
2022-11-12T00:04:15.018Z,5.71
2022-11-12T00:07:02.172Z,5.78
2022-11-12T00:09:48.232Z,5.73
2022-11-12T00:12:34.756Z,5.47
2022-11-12T00:15:20.941Z,5.28
2022-11-12T00:18:08.430Z,5.02
2022-11-12T00:20:56.217Z,4.90
2022-11-12T00:23:42.635Z,5.13
2022-11-12T00:26:29.062Z,5.18
2022-11-12T00:29:15.323Z,5.11
2022-11-12T00:32:01.875Z,5.01
2022-11-12T00:34:48.388Z,4.93
2022-11-12T00:37:36.167Z,5.16
2022-11-12T00:40:22.383Z,5.05
2022-11-12T00:43:08.956Z,5.15
2022-11-12T00:45:55.497Z,5.05
2022-11-12T00:48:42.288Z,4.94
2022-11-12T00:51:28.820Z,4.96
2022-11-12T00:54:16.693Z,4.92
2022-11-12T00:57:03.304Z,4.86
2022-11-12T00:59:49.846Z,4.80
2022-11-12T01:02:42.241Z,4.77
2022-11-12T01:05:29.613Z,4.94
2022-11-12T01:08:16.178Z,4.99
2022-11-12T01:11:12.489Z,5.05
2022-11-12T01:14:02.157Z,4.90
2022-11-12T01:16:48.765Z,5.05
2022-11-12T01:19:35.574Z,4.80
2022-11-12T01:22:21.988Z,4.36
2022-11-12T01:25:09.117Z,4.10
2022-11-12T01:27:57.094Z,4.18
2022-11-12T01:30:43.544Z,4.75
2022-11-12T01:33:30.072Z,5.21
2022-11-12T01:36:19.096Z,5.17
2022-11-12T01:39:06.659Z,4.99
2022-11-12T01:41:52.907Z,5.01
2022-11-12T01:44:45.799Z,5.40
2022-11-12T01:47:35.722Z,5.52
2022-11-12T01:50:26.622Z,5.14
2022-11-12T01:53:15.114Z,3.95
2022-11-12T01:56:04.372Z,4.13
2022-11-12T01:58:54.836Z,4.59
2022-11-12T02:01:42.455Z,5.01
2022-11-12T02:04:29.216Z,5.19
2022-11-12T02:07:16.465Z,5.27
2022-11-12T02:10:04.358Z,5.22
2022-11-12T02:13:10.202Z,5.22
2022-11-12T02:15:57.075Z,5.30
2022-11-12T02:18:44.873Z,5.38
2022-11-12T02:21:32.852Z,5.06
2022-11-12T02:24:37.884Z,4.99
2022-11-12T02:27:25.235Z,5.23
2022-11-12T02:30:12.347Z,5.40
2022-11-12T02:32:58.801Z,5.66
2022-11-12T02:35:45.056Z,5.61
2022-11-12T02:38:33.123Z,5.39
2022-11-12T02:41:19.451Z,5.27
2022-11-12T02:44:05.944Z,5.05
2022-11-12T02:46:52.343Z,4.68
2022-11-12T02:49:38.633Z,4.24
2022-11-12T02:52:24.955Z,4.65
2022-11-12T02:55:13.979Z,4.81
2022-11-12T02:58:00.759Z,4.48
2022-11-12T03:00:48.352Z,4.57
2022-11-12T03:03:37.270Z,4.89
2022-11-12T03:06:24.018Z,5.20
2022-11-12T03:09:12.304Z,5.47
2022-11-12T03:11:59.859Z,5.43
2022-11-12T03:14:46.397Z,5.34
2022-11-12T03:17:34.999Z,5.47
2022-11-12T03:20:21.554Z,5.56
2022-11-12T03:23:10.510Z,5.60
2022-11-12T03:25:56.889Z,5.59
2022-11-12T03:28:44.762Z,5.52
2022-11-12T03:31:30.967Z,5.36
2022-11-12T03:34:17.595Z,5.28
2022-11-12T03:37:04.302Z,5.50
2022-11-12T03:39:50.683Z,5.62
2022-11-12T03:42:37.215Z,5.60
2022-11-12T03:45:26.457Z,5.36
2022-11-12T03:48:12.913Z,5.33
2022-11-12T03:50:59.647Z,5.30
2022-11-12T03:53:46.391Z,5.40
2022-11-12T03:56:32.710Z,5.26
2022-11-12T03:59:18.917Z,5.25
2022-11-12T04:02:06.776Z,5.19
2022-11-12T04:05:16.608Z,5.05
2022-11-12T04:08:23.885Z,5.20
2022-11-12T04:11:12.880Z,5.39
2022-11-12T04:13:58.897Z,5.47
2022-11-12T04:17:02.641Z,5.60
2022-11-12T04:20:07.105Z,5.19
2022-11-12T04:22:53.579Z,5.23
2022-11-12T04:25:59.038Z,5.19
2022-11-12T04:29:06.003Z,5.11
2022-11-12T04:31:51.642Z,4.95
2022-11-12T04:34:37.913Z,4.80
2022-11-12T04:37:26.959Z,4.95
2022-11-12T04:40:32.733Z,4.98
2022-11-12T04:43:36.866Z,4.68
2022-11-12T04:46:23.478Z,4.92
2022-11-12T04:49:10.039Z,5.04
2022-11-12T04:52:08.434Z,4.92
2022-11-12T04:54:56.483Z,5.09
2022-11-12T04:57:42.794Z,5.07
2022-11-12T05:00:29.964Z,4.54
2022-11-12T05:03:16.443Z,4.14
2022-11-12T05:06:25.818Z,4.45
2022-11-12T05:09:12.309Z,4.34
2022-11-12T05:12:00.478Z,4.59
2022-11-12T05:14:47.087Z,4.82
2022-11-12T05:17:33.444Z,5.11
2022-11-12T05:20:19.863Z,5.10
2022-11-12T05:23:07.656Z,4.94
2022-11-12T05:25:54.161Z,5.03
2022-11-12T05:28:42.027Z,5.12
2022-11-12T05:31:28.563Z,5.00
2022-11-12T05:34:18.609Z,4.98
2022-11-12T05:37:09.058Z,4.97
2022-11-12T05:39:56.646Z,4.93
2022-11-12T05:42:43.365Z,4.97
2022-11-12T05:45:30.914Z,4.72
2022-11-12T05:48:23.034Z,4.12
2022-11-12T05:51:14.124Z,4.28
2022-11-12T05:54:02.461Z,4.03
2022-11-12T05:56:49.828Z,4.59
2022-11-12T05:59:36.125Z,4.72
2022-11-12T06:02:23.966Z,4.72
2022-11-12T06:05:10.728Z,4.98
2022-11-12T06:07:57.206Z,5.04
2022-11-12T06:10:44.175Z,4.91
2022-11-12T06:13:30.859Z,4.69
2022-11-12T06:16:17.059Z,4.71
2022-11-12T06:19:04.994Z,4.94
2022-11-12T06:21:51.701Z,4.89
2022-11-12T06:24:38.215Z,4.92
2022-11-12T06:27:24.939Z,4.99
2022-11-12T06:30:13.263Z,4.93
2022-11-12T06:32:59.766Z,4.75
2022-11-12T06:35:47.804Z,4.77
2022-11-12T06:38:36.208Z,4.88
2022-11-12T06:41:22.426Z,4.85
2022-11-12T06:44:08.860Z,4.68
2022-11-12T06:46:55.780Z,4.28
2022-11-12T06:49:42.062Z,3.57
2022-11-12T06:52:29.806Z,3.52
2022-11-12T06:55:16.504Z,4.14
2022-11-12T06:58:03.006Z,4.42
2022-11-12T07:00:49.486Z,4.57
2022-11-12T07:03:36.417Z,4.71
2022-11-12T07:06:22.845Z,4.66
2022-11-12T07:09:11.857Z,4.67
2022-11-12T07:11:58.326Z,4.84
2022-11-12T07:14:44.868Z,4.87
2022-11-12T07:17:32.137Z,4.83
2022-11-12T07:20:18.520Z,4.73
2022-11-12T07:23:04.749Z,4.89
2022-11-12T07:26:01.865Z,4.90
2022-11-12T07:28:48.362Z,4.81
2022-11-12T07:31:34.676Z,4.96
2022-11-12T07:34:20.985Z,4.52
2022-11-12T07:37:07.488Z,4.06
2022-11-12T07:39:53.877Z,3.90
2022-11-12T07:42:41.826Z,4.04
2022-11-12T07:45:28.222Z,4.82
2022-11-12T07:48:14.429Z,5.00
2022-11-12T07:51:02.882Z,5.38
2022-11-12T07:53:56.254Z,5.30
2022-11-12T07:56:45.526Z,5.24
2022-11-12T07:59:33.419Z,5.31
2022-11-12T08:02:19.977Z,5.48
2022-11-12T08:05:13.744Z,5.23
2022-11-12T08:08:02.801Z,5.32
2022-11-12T08:10:49.197Z,5.20
2022-11-12T08:13:35.638Z,5.63
2022-11-12T08:16:23.557Z,5.83
2022-11-12T08:19:09.905Z,5.82
2022-11-12T08:21:56.842Z,5.66
2022-11-12T08:24:43.457Z,5.60
2022-11-12T08:27:29.904Z,4.57
2022-11-12T08:30:16.425Z,4.77
2022-11-12T08:33:06.779Z,5.30
2022-11-12T08:35:53.692Z,5.31
2022-11-12T08:38:40.489Z,5.74
2022-11-12T08:41:27.027Z,5.73
2022-11-12T08:44:13.944Z,6.34
2022-11-12T08:47:01.543Z,6.85
2022-11-12T08:49:52.953Z,7.11
2022-11-12T08:52:40.147Z,6.81
2022-11-12T08:55:27.033Z,6.53
2022-11-12T08:58:14.247Z,6.97
2022-11-12T09:01:05.946Z,7.16
2022-11-12T09:03:52.423Z,6.68
2022-11-12T09:06:40.258Z,6.96
2022-11-12T09:09:26.752Z,7.05
2022-11-12T09:12:19.667Z,6.90
2022-11-12T09:15:36.231Z,6.95
2022-11-12T09:18:16.897Z,6.79
2022-11-12T09:21:06.220Z,7.06
2022-11-12T09:23:53.957Z,7.45
2022-11-12T09:26:40.715Z,7.46
2022-11-12T09:29:27.052Z,7.39
2022-11-12T09:32:13.498Z,7.02
2022-11-12T09:35:00.321Z,6.94
2022-11-12T09:37:46.548Z,7.49
2022-11-12T09:40:49.878Z,7.92
2022-11-12T09:43:41.543Z,8.15
2022-11-12T09:46:42.222Z,7.73
2022-11-12T09:49:32.349Z,8.16
2022-11-12T09:52:22.806Z,8.04
2022-11-12T09:55:18.673Z,8.36
2022-11-12T09:58:12.068Z,8.65
2022-11-12T10:01:02.573Z,7.73
2022-11-12T10:03:57.093Z,8.04
2022-11-12T10:06:51.937Z,7.73
2022-11-12T10:09:47.478Z,7.81
2022-11-12T10:12:46.631Z,8.02
2022-11-12T10:15:57.493Z,8.25
2022-11-12T10:18:55.971Z,8.65
2022-11-12T10:21:52.280Z,8.81
2022-11-12T10:24:41.221Z,9.04
2022-11-12T10:27:35.287Z,8.01
2022-11-12T10:30:23.847Z,8.00
2022-11-12T10:33:15.360Z,7.77
2022-11-12T10:36:16.076Z,7.68
2022-11-12T10:39:02.600Z,7.65
2022-11-12T10:42:03.806Z,7.60
2022-11-12T10:44:51.824Z,7.97
2022-11-12T10:47:43.748Z,7.96
2022-11-12T10:50:37.483Z,7.75
2022-11-12T10:53:36.873Z,7.85
2022-11-12T10:56:27.153Z,8.15
2022-11-12T10:59:18.012Z,8.28
2022-11-12T11:02:04.757Z,8.58
2022-11-12T11:04:51.353Z,8.36
2022-11-12T11:07:39.531Z,8.51
2022-11-12T11:10:28.456Z,8.57
2022-11-12T11:13:25.396Z,8.91
2022-11-12T11:16:15.371Z,9.15
2022-11-12T11:19:06.169Z,9.12
2022-11-12T11:22:06.474Z,9.12
2022-11-12T11:25:06.834Z,9.14
2022-11-12T11:28:05.790Z,9.43
2022-11-12T11:31:00.209Z,9.54
2022-11-12T11:33:57.487Z,9.45
2022-11-12T11:36:55.185Z,9.51
2022-11-12T11:39:50.440Z,9.81
2022-11-12T11:42:55.752Z,9.99
2022-11-12T11:45:57.442Z,10.28
2022-11-12T11:49:06.038Z,10.48
2022-11-12T11:52:00.561Z,10.64
2022-11-12T11:55:05.536Z,10.87
2022-11-12T11:58:06.067Z,10.76
2022-11-12T12:01:01.645Z,10.71
2022-11-12T12:04:04.711Z,10.91
2022-11-12T12:07:13.556Z,10.84
2022-11-12T12:10:09.508Z,10.55
2022-11-12T12:13:05.384Z,10.42
2022-11-12T12:16:18.864Z,10.33
2022-11-12T12:19:13.722Z,10.29
2022-11-12T12:22:02.322Z,10.13
2022-11-12T12:24:51.739Z,10.19
2022-11-12T12:27:47.948Z,10.14
2022-11-12T12:30:41.135Z,10.16
2022-11-12T12:33:33.960Z,10.52
2022-11-12T12:36:27.069Z,10.72
2022-11-12T12:39:16.249Z,10.68
2022-11-12T12:42:06.771Z,10.66
2022-11-12T12:45:05.020Z,10.43
2022-11-12T12:47:55.162Z,10.53
2022-11-12T12:50:43.506Z,10.46
2022-11-12T12:53:35.464Z,10.64
2022-11-12T12:56:44.729Z,10.57
2022-11-12T12:59:31.539Z,10.65
2022-11-12T13:02:22.222Z,10.74
2022-11-12T13:05:25.305Z,10.66
2022-11-12T13:08:14.958Z,10.56
2022-11-12T13:11:01.526Z,10.58
2022-11-12T13:13:47.735Z,10.68
2022-11-12T13:16:59.322Z,10.48
2022-11-12T13:19:51.084Z,10.42
2022-11-12T13:22:52.503Z,10.35
2022-11-12T13:25:42.336Z,10.18
2022-11-12T13:28:29.207Z,10.09
2022-11-12T13:31:29.951Z,10.17
2022-11-12T13:34:28.337Z,10.10
2022-11-12T13:37:21.207Z,10.10
2022-11-12T13:40:15.497Z,10.10
2022-11-12T13:43:07.989Z,10.13
2022-11-12T13:46:00.317Z,10.18
2022-11-12T13:48:49.836Z,10.09
2022-11-12T13:51:40.554Z,10.03
2022-11-12T13:54:33.048Z,9.89
2022-11-12T13:57:32.653Z,9.72
2022-11-12T14:00:28.183Z,9.73
2022-11-12T14:03:20.285Z,9.60
2022-11-12T14:06:16.234Z,9.57
2022-11-12T14:09:27.258Z,9.43
2022-11-12T14:12:27.911Z,9.44
2022-11-12T14:15:30.655Z,9.33
2022-11-12T14:18:25.121Z,9.18
2022-11-12T14:21:16.749Z,9.09
2022-11-12T14:24:05.465Z,9.13
2022-11-12T14:26:52.406Z,8.99
2022-11-12T14:29:43.404Z,8.87
2022-11-12T14:32:38.222Z,8.80
2022-11-12T14:35:32.045Z,8.71
2022-11-12T14:38:21.579Z,8.57
2022-11-12T14:41:11.200Z,8.43
2022-11-12T14:44:12.072Z,8.36
2022-11-12T14:47:00.269Z,8.27
2022-11-12T14:49:50.756Z,8.05
2022-11-12T14:52:42.597Z,7.88
2022-11-12T14:55:32.757Z,7.85
2022-11-12T14:58:21.317Z,7.72
2022-11-12T15:02:03.848Z,7.64
2022-11-12T15:04:38.258Z,7.52
2022-11-12T15:07:28.629Z,7.44
2022-11-12T15:10:33.222Z,7.31
2022-11-12T15:13:22.244Z,7.21
2022-11-12T15:16:10.441Z,7.18
2022-11-12T15:19:20.942Z,7.11
2022-11-12T15:22:07.426Z,6.99
2022-11-12T15:24:55.304Z,6.91
2022-11-12T15:27:42.919Z,6.78
2022-11-12T15:30:31.814Z,6.75
2022-11-12T15:33:22.885Z,6.64
2022-11-12T15:36:18.737Z,6.55
2022-11-12T15:39:06.101Z,6.50
2022-11-12T15:42:01.205Z,6.47
2022-11-12T15:44:48.475Z,6.38
2022-11-12T15:47:34.643Z,6.21
2022-11-12T15:50:22.682Z,6.11
2022-11-12T15:53:08.765Z,6.08
2022-11-12T15:55:55.603Z,6.04
2022-11-12T15:58:43.282Z,6.03
2022-11-12T16:01:29.457Z,5.99
2022-11-12T16:04:16.145Z,5.96
2022-11-12T16:07:06.739Z,5.94
2022-11-12T16:09:54.173Z,5.78
2022-11-12T16:12:40.669Z,5.64
2022-11-12T16:15:28.864Z,5.52
2022-11-12T16:18:15.108Z,5.44
2022-11-12T16:21:01.475Z,5.36
2022-11-12T16:23:48.026Z,5.40
2022-11-12T16:26:35.292Z,5.42
2022-11-12T16:29:21.837Z,5.45
2022-11-12T16:32:13.519Z,5.47
2022-11-12T16:35:01.274Z,5.53
2022-11-12T16:37:48.966Z,5.59
2022-11-12T16:40:35.490Z,5.67
2022-11-12T16:43:22.006Z,5.73
2022-11-12T16:46:24.820Z,5.88
2022-11-12T16:49:14.716Z,5.92
2022-11-12T16:52:01.178Z,6.06
2022-11-12T16:54:47.757Z,6.04
2022-11-12T16:57:34.380Z,6.03
2022-11-12T17:00:21.296Z,6.08
2022-11-12T17:03:08.480Z,6.00
2022-11-12T17:05:56.365Z,6.06
2022-11-12T17:08:44.462Z,6.19
2022-11-12T17:11:30.841Z,6.20
2022-11-12T17:14:18.387Z,6.15
2022-11-12T17:17:04.929Z,6.05
2022-11-12T17:19:51.442Z,6.02
2022-11-12T17:22:39.332Z,6.02
2022-11-12T17:25:25.550Z,6.03
2022-11-12T17:28:12.110Z,6.11
2022-11-12T17:31:11.018Z,6.20
2022-11-12T17:33:57.132Z,6.20
2022-11-12T17:36:44.093Z,6.29
2022-11-12T17:39:31.945Z,6.26
2022-11-12T17:42:19.236Z,6.31
2022-11-12T17:45:06.199Z,6.31
2022-11-12T17:47:52.393Z,6.29
2022-11-12T17:50:38.846Z,6.31
2022-11-12T17:53:25.351Z,6.39
2022-11-12T17:56:15.682Z,6.42
2022-11-12T17:59:02.767Z,6.32
2022-11-12T18:01:48.936Z,6.34
2022-11-12T18:04:35.573Z,6.29
2022-11-12T18:07:21.980Z,6.20
2022-11-12T18:10:08.407Z,6.21
2022-11-12T18:12:56.455Z,6.24
2022-11-12T18:15:42.862Z,6.22
2022-11-12T18:18:29.252Z,6.27
2022-11-12T18:21:16.881Z,6.12
2022-11-12T18:24:03.411Z,6.10
2022-11-12T18:26:49.892Z,6.09
2022-11-12T18:29:40.212Z,6.08
2022-11-12T18:32:26.767Z,6.09
2022-11-12T18:35:13.403Z,6.00
2022-11-12T18:38:00.694Z,5.86
2022-11-12T18:40:47.014Z,5.93
2022-11-12T18:43:33.692Z,5.99
2022-11-12T18:46:21.484Z,5.96
2022-11-12T18:49:08.220Z,5.98
2022-11-12T18:51:54.617Z,5.93
2022-11-12T18:54:41.023Z,5.91
2022-11-12T18:57:27.342Z,5.90
2022-11-12T19:00:15.610Z,5.99
2022-11-12T19:03:03.506Z,5.94
2022-11-12T19:05:58.822Z,5.92
2022-11-12T19:08:45.062Z,5.96
2022-11-12T19:11:31.648Z,6.05
2022-11-12T19:14:17.866Z,6.04
2022-11-12T19:17:07.045Z,5.98
2022-11-12T19:19:54.626Z,5.99
2022-11-12T19:22:41.006Z,5.97
2022-11-12T19:25:27.201Z,5.97
2022-11-12T19:28:13.733Z,6.01
2022-11-12T19:31:04.647Z,5.91
2022-11-12T19:33:51.952Z,5.95
2022-11-12T19:36:41.005Z,5.99
2022-11-12T19:39:27.514Z,5.99
2022-11-12T19:42:14.052Z,6.02
2022-11-12T19:45:00.690Z,5.90
2022-11-12T19:47:47.632Z,5.91
2022-11-12T19:50:37.045Z,5.98
2022-11-12T19:53:24.855Z,6.07
2022-11-12T19:56:13.543Z,6.00
2022-11-12T19:59:01.716Z,5.91
2022-11-12T20:01:47.945Z,5.80
2022-11-12T20:04:34.839Z,5.80
2022-11-12T20:07:21.501Z,5.83
2022-11-12T20:10:10.684Z,5.81
2022-11-12T20:12:56.928Z,5.80
2022-11-12T20:15:43.479Z,5.78
2022-11-12T20:18:29.966Z,5.86
2022-11-12T20:21:16.833Z,5.74
2022-11-12T20:24:03.394Z,5.61
2022-11-12T20:26:51.264Z,5.56
2022-11-12T20:29:37.672Z,5.67
2022-11-12T20:32:24.211Z,5.78
2022-11-12T20:35:15.215Z,5.70
2022-11-12T20:38:04.443Z,5.72
2022-11-12T20:40:58.500Z,5.71
2022-11-12T20:43:46.821Z,5.62
2022-11-12T20:46:33.382Z,5.50
2022-11-12T20:49:19.871Z,5.57
2022-11-12T20:52:06.437Z,5.64
2022-11-12T20:54:53.014Z,5.75
2022-11-12T20:57:39.573Z,5.75
2022-11-12T21:00:27.044Z,5.84
2022-11-12T21:03:13.657Z,5.89
2022-11-12T21:06:00.812Z,5.70
2022-11-12T21:08:47.821Z,5.65
2022-11-12T21:11:34.424Z,5.67
2022-11-12T21:14:20.787Z,5.74
2022-11-12T21:17:08.820Z,5.75
2022-11-12T21:19:55.362Z,5.67
2022-11-12T21:22:41.979Z,5.63
2022-11-12T21:25:28.403Z,5.69
2022-11-12T21:28:14.806Z,5.77
2022-11-12T21:31:06.378Z,5.82
2022-11-12T21:33:55.510Z,5.76
2022-11-12T21:36:42.063Z,6.26
2022-11-12T21:39:28.312Z,6.12
2022-11-12T21:42:14.782Z,6.08
2022-11-12T21:45:01.192Z,6.14
2022-11-12T21:47:47.769Z,5.84
2022-11-12T21:50:35.453Z,5.74
2022-11-12T21:53:21.975Z,5.67
2022-11-12T21:56:11.484Z,5.66
2022-11-12T21:59:00.479Z,5.67
2022-11-12T22:01:46.914Z,5.72
2022-11-12T22:04:33.483Z,5.75
2022-11-12T22:07:21.434Z,5.71
2022-11-12T22:10:08.546Z,5.66
2022-11-12T22:13:24.894Z,5.61
2022-11-12T22:16:06.581Z,5.46
2022-11-12T22:18:55.200Z,5.58
2022-11-12T22:21:41.755Z,5.69
2022-11-12T22:24:29.468Z,5.66
2022-11-12T22:27:16.081Z,5.65
2022-11-12T22:30:02.578Z,5.68
2022-11-12T22:32:48.881Z,5.71
2022-11-12T22:35:35.574Z,5.67
2022-11-12T22:38:21.902Z,5.60
2022-11-12T22:41:11.289Z,5.65
2022-11-12T22:43:59.544Z,5.60
2022-11-12T22:46:46.170Z,5.57
2022-11-12T22:49:32.657Z,5.52
2022-11-12T22:52:18.913Z,5.53
2022-11-12T22:55:06.319Z,5.47
2022-11-12T22:57:53.964Z,5.48
2022-11-12T23:00:40.530Z,5.51
2022-11-12T23:03:26.836Z,5.43
2022-11-12T23:06:13.356Z,5.46
2022-11-12T23:09:00.671Z,5.44
2022-11-12T23:11:47.057Z,5.42
2022-11-12T23:14:35.294Z,5.36
2022-11-12T23:17:21.504Z,5.41
2022-11-12T23:20:09.451Z,5.43
2022-11-12T23:22:55.759Z,5.42
2022-11-12T23:25:42.239Z,5.45
2022-11-12T23:28:28.826Z,5.48
2022-11-12T23:31:18.949Z,5.38
2022-11-12T23:34:05.683Z,5.14
2022-11-12T23:36:51.915Z,5.04
2022-11-12T23:39:38.861Z,5.06
2022-11-12T23:42:25.499Z,5.01
2022-11-12T23:45:12.376Z,4.88
2022-11-12T23:47:59.975Z,4.76
2022-11-12T23:50:47.440Z,4.68
2022-11-12T23:53:35.322Z,4.69
2022-11-12T23:56:21.825Z,4.85
2022-11-12T23:59:08.196Z,4.67
